Terminal Aerodrome Forecast
Issued by NWS

Home | Current Version | Previous Version | Graphics & Text | Print | Product List | Glossary On
Versions: 1 2 3 4 5 6 7 8 9 10 11 12 13 14 15
641
FTUS43 KGRB 100520
TAFAUW
TAF
KAUW 100520Z 1006/1106 32010KT P6SM BKN040
      TEMPO 1008/1012 SCT040
     FM101200 31008KT P6SM SCT040
      TEMPO 1018/1022 BKN040
     FM110000 31004KT P6SM SKC=

USA.gov is the U.S. government's official web portal to all federal, state and local government web resources and services.